Time;durP1;ratioP1;P1;durP2;ratioP2;P2;SDS_P1;SDS_P2;PMS_P1;PMS_P2;Temp;Humidity;BMP_temperature;BMP_pressure;BME280_temperature;BME280_humidity;BME280_pressure;Samples;Min_cycle;Max_cycle;Signal;HPM_P1;HPM_P2
2023/06/27 00:02:03;;;;;;;10.32;4.03;;;;;;;;;;10318628;28;20083;-59
2023/06/27 00:07:01;;;;;;;6.28;4.50;;;;;;;;;;10319502;28;20489;-59
2023/06/27 00:12:00;;;;;;;4.60;3.72;;;;;;;;;;10319720;28;20072;-60
2023/06/27 00:17:00;;;;;;;7.82;4.35;;;;;;;;;;10317939;28;20056;-59
2023/06/27 00:21:58;;;;;;;5.15;4.45;;;;;;;;;;10318921;28;20068;-58
2023/06/27 00:26:57;;;;;;;5.75;4.00;;;;;;;;;;10317062;28;20063;-58
2023/06/27 00:31:56;;;;;;;6.15;4.07;;;;;;;;;;10316892;28;20596;-58
2023/06/27 00:36:55;;;;;;;8.63;4.38;;;;;;;;;;10318643;28;20068;-58
2023/06/27 00:41:54;;;;;;;4.97;3.67;;;;;;;;;;10315416;28;20064;-58
2023/06/27 00:46:52;;;;;;;5.72;3.58;;;;;;;;;;10317937;28;20076;-58
2023/06/27 00:51:52;;;;;;;5.88;3.90;;;;;;;;;;10317341;28;20060;-59
2023/06/27 00:56:53;;;;;;;6.88;4.28;;;;;;;;;;10317626;28;20068;-59
2023/06/27 01:01:51;;;;;;;3.95;3.55;;;;;;;;;;10317241;28;20041;-59
2023/06/27 01:06:54;;;;;;;4.30;3.72;;;;;;;;;;10315734;28;20072;-58
2023/06/27 01:11:58;;;;;;;12.95;4.07;;;;;;;;;;10316327;28;20595;-58
2023/06/27 01:16:57;;;;;;;7.95;4.63;;;;;;;;;;10315334;28;20107;-58
2023/06/27 01:21:59;;;;;;;4.43;4.03;;;;;;;;;;10313859;28;20406;-59
2023/06/27 01:27:00;;;;;;;5.20;3.75;;;;;;;;;;10328341;28;20084;-58
2023/06/27 01:32:03;;;;;;;7.90;3.50;;;;;;;;;;10328924;28;20076;-58
2023/06/27 01:37:05;;;;;;;5.85;4.25;;;;;;;;;;10316021;28;20102;-58
2023/06/27 01:42:08;;;;;;;5.43;4.95;;;;;;;;;;10314237;28;21038;-59
2023/06/27 01:47:07;;;;;;;11.57;4.68;;;;;;;;;;10315593;28;20083;-59
2023/06/27 01:52:06;;;;;;;5.00;4.50;;;;;;;;;;10315491;28;20936;-59
2023/06/27 01:57:06;;;;;;;4.60;4.20;;;;;;;;;;10315169;28;20528;-59
2023/06/27 02:02:04;;;;;;;7.47;4.80;;;;;;;;;;10313627;28;20061;-58
2023/06/27 02:07:02;;;;;;;5.65;4.65;;;;;;;;;;10315299;28;20514;-58
2023/06/27 02:12:02;;;;;;;6.43;4.68;;;;;;;;;;10312767;28;20076;-59
2023/06/27 02:17:02;;;;;;;7.05;5.10;;;;;;;;;;10312830;28;20052;-58
2023/06/27 02:22:02;;;;;;;6.03;5.20;;;;;;;;;;10314689;28;20486;-59
2023/06/27 02:27:00;;;;;;;6.55;5.38;;;;;;;;;;10314299;28;20524;-58
2023/06/27 02:31:58;;;;;;;6.97;5.68;;;;;;;;;;10313845;28;20087;-58
2023/06/27 02:36:59;;;;;;;7.85;5.38;;;;;;;;;;10303239;28;20076;-57
2023/06/27 02:41:57;;;;;;;7.38;5.53;;;;;;;;;;10311817;28;20470;-58
2023/06/27 02:46:55;;;;;;;14.18;5.78;;;;;;;;;;10313669;28;20508;-58
2023/06/27 02:51:53;;;;;;;7.55;5.97;;;;;;;;;;10311948;28;20083;-58
2023/06/27 02:56:53;;;;;;;7.05;6.10;;;;;;;;;;10312005;28;20044;-58
2023/06/27 03:01:51;;;;;;;8.82;5.63;;;;;;;;;;10311686;28;20485;-58
2023/06/27 03:06:49;;;;;;;8.02;6.25;;;;;;;;;;10311437;28;20106;-58
2023/06/27 03:11:48;;;;;;;6.70;6.10;;;;;;;;;;10311777;28;20080;-58
2023/06/27 03:16:54;;;;;;;10.68;5.88;;;;;;;;;;10310548;28;20080;-58
2023/06/27 03:21:53;;;;;;;12.45;6.05;;;;;;;;;;10302409;28;20518;-58
2023/06/27 03:26:51;;;;;;;7.43;5.90;;;;;;;;;;10308435;28;20075;-58
2023/06/27 03:31:50;;;;;;;7.40;6.32;;;;;;;;;;10321222;28;20499;-58
2023/06/27 03:36:51;;;;;;;11.55;6.13;;;;;;;;;;10306492;28;20509;-58
2023/06/27 03:41:49;;;;;;;6.93;5.88;;;;;;;;;;10312184;28;20065;-58
2023/06/27 03:46:47;;;;;;;11.45;6.45;;;;;;;;;;10314532;28;20072;-58
2023/06/27 03:51:47;;;;;;;10.55;5.88;;;;;;;;;;10329645;28;20080;-57
2023/06/27 03:56:47;;;;;;;9.50;7.07;;;;;;;;;;10317844;28;20068;-57
2023/06/27 04:01:45;;;;;;;12.13;6.40;;;;;;;;;;10316996;28;20461;-59
2023/06/27 04:06:43;;;;;;;11.82;6.75;;;;;;;;;;10318717;28;20057;-59
2023/06/27 04:11:42;;;;;;;12.15;6.82;;;;;;;;;;10304837;28;20158;-59
2023/06/27 04:16:41;;;;;;;7.60;6.65;;;;;;;;;;10331990;28;20045;-58
2023/06/27 04:21:39;;;;;;;8.50;5.43;;;;;;;;;;10330336;28;20072;-57
2023/06/27 04:26:42;;;;;;;7.50;5.90;;;;;;;;;;10316258;28;20064;-57
2023/06/27 04:31:42;;;;;;;7.15;6.40;;;;;;;;;;10316795;28;20497;-59
2023/06/27 04:36:40;;;;;;;9.02;6.30;;;;;;;;;;10314953;28;20076;-59
2023/06/27 04:41:39;;;;;;;9.45;5.07;;;;;;;;;;10301841;28;20075;-59
2023/06/27 04:46:38;;;;;;;9.18;5.55;;;;;;;;;;10322010;28;20068;-58
2023/06/27 04:51:38;;;;;;;6.78;5.15;;;;;;;;;;10311657;28;20080;-59
2023/06/27 04:56:36;;;;;;;7.93;4.93;;;;;;;;;;10299890;28;20076;-59
2023/06/27 05:01:34;;;;;;;8.27;5.13;;;;;;;;;;10304168;28;20476;-59
2023/06/27 05:06:33;;;;;;;4.45;3.78;;;;;;;;;;10306905;28;20454;-59
2023/06/27 05:11:32;;;;;;;4.70;4.13;;;;;;;;;;10315396;28;20083;-59
2023/06/27 05:16:31;;;;;;;6.03;5.15;;;;;;;;;;10315950;28;20056;-59
2023/06/27 05:21:30;;;;;;;6.20;4.38;;;;;;;;;;10315622;28;20071;-59
2023/06/27 05:26:28;;;;;;;6.35;3.80;;;;;;;;;;10313977;28;20067;-59
2023/06/27 05:31:28;;;;;;;5.95;3.72;;;;;;;;;;10316252;28;20289;-59
2023/06/27 05:36:26;;;;;;;4.70;4.13;;;;;;;;;;10314680;28;20080;-60
2023/06/27 05:41:24;;;;;;;4.50;4.10;;;;;;;;;;10313232;28;20076;-59
2023/06/27 05:46:22;;;;;;;12.27;3.90;;;;;;;;;;10309904;28;20087;-59
2023/06/27 05:51:22;;;;;;;8.48;4.20;;;;;;;;;;10314169;28;20079;-59
2023/06/27 05:56:20;;;;;;;6.68;4.32;;;;;;;;;;10307503;28;20073;-59
2023/06/27 06:01:18;;;;;;;6.20;3.65;;;;;;;;;;10301583;28;20071;-58
2023/06/27 06:06:17;;;;;;;6.35;4.13;;;;;;;;;;10307394;28;20080;-58
2023/06/27 06:11:16;;;;;;;5.13;3.72;;;;;;;;;;10303899;28;20075;-58
2023/06/27 06:16:14;;;;;;;5.03;3.45;;;;;;;;;;10294666;28;20075;-59
2023/06/27 06:21:13;;;;;;;4.60;4.10;;;;;;;;;;10302318;28;20071;-59
2023/06/27 06:26:11;;;;;;;6.38;4.65;;;;;;;;;;10300169;28;20068;-59
2023/06/27 06:31:14;;;;;;;6.60;3.97;;;;;;;;;;10309028;28;20113;-58
2023/06/27 06:36:13;;;;;;;6.57;4.45;;;;;;;;;;10305464;28;20060;-58
2023/06/27 06:41:11;;;;;;;8.80;4.47;;;;;;;;;;10301990;28;20092;-59
2023/06/27 06:46:09;;;;;;;4.00;3.70;;;;;;;;;;10310048;28;20064;-58
2023/06/27 06:51:09;;;;;;;5.07;3.90;;;;;;;;;;10307226;28;20068;-59
2023/06/27 06:56:07;;;;;;;6.35;4.53;;;;;;;;;;10309710;28;20134;-59
2023/06/27 07:01:05;;;;;;;6.07;3.83;;;;;;;;;;10313788;28;20072;-59
2023/06/27 07:06:04;;;;;;;7.15;4.65;;;;;;;;;;10321719;28;20462;-59
2023/06/27 07:11:04;;;;;;;8.90;4.38;;;;;;;;;;10320909;28;20488;-60
2023/06/27 07:16:02;;;;;;;6.43;4.00;;;;;;;;;;10317458;28;20095;-59
2023/06/27 07:21:00;;;;;;;11.95;6.25;;;;;;;;;;10320498;28;20089;-59
2023/06/27 07:25:59;;;;;;;5.75;3.83;;;;;;;;;;10317034;28;20465;-58
2023/06/27 07:30:58;;;;;;;5.25;3.70;;;;;;;;;;10316397;28;20565;-59
2023/06/27 07:35:57;;;;;;;6.28;4.10;;;;;;;;;;10315785;28;20068;-58
2023/06/27 07:40:55;;;;;;;4.53;4.13;;;;;;;;;;10317411;28;20127;-59
2023/06/27 07:45:54;;;;;;;5.97;4.30;;;;;;;;;;10317614;28;20067;-59
2023/06/27 07:50:54;;;;;;;8.05;5.95;;;;;;;;;;10317136;28;20457;-58
2023/06/27 07:55:52;;;;;;;5.18;4.68;;;;;;;;;;10317142;28;20064;-58
2023/06/27 08:00:51;;;;;;;5.18;4.35;;;;;;;;;;10316515;28;20076;-59
2023/06/27 08:05:49;;;;;;;5.30;4.18;;;;;;;;;;10316404;28;20748;-59
2023/06/27 08:10:48;;;;;;;7.43;5.35;;;;;;;;;;10305249;28;20511;-59
2023/06/27 08:15:47;;;;;;;7.30;4.53;;;;;;;;;;10305428;28;20087;-59
2023/06/27 08:20:45;;;;;;;4.72;4.32;;;;;;;;;;10313891;28;20479;-59
2023/06/27 08:25:43;;;;;;;5.70;4.28;;;;;;;;;;10316053;28;20072;-60
2023/06/27 08:30:43;;;;;;;5.00;4.10;;;;;;;;;;10315618;28;20075;-60
2023/06/27 08:35:41;;;;;;;6.70;4.18;;;;;;;;;;10314032;28;20080;-59
2023/06/27 08:40:40;;;;;;;4.20;3.80;;;;;;;;;;10314439;28;20092;-58
2023/06/27 08:45:39;;;;;;;4.70;4.15;;;;;;;;;;10318011;28;20075;-58
2023/06/27 08:50:39;;;;;;;7.30;4.00;;;;;;;;;;10316709;28;20068;-59
2023/06/27 08:55:40;;;;;;;4.65;3.30;;;;;;;;;;10317535;28;20659;-59
2023/06/27 09:00:38;;;;;;;4.88;3.75;;;;;;;;;;10315066;28;20063;-59
2023/06/27 09:05:39;;;;;;;4.10;3.70;;;;;;;;;;10317320;28;20083;-59
2023/06/27 09:10:38;;;;;;;3.80;3.33;;;;;;;;;;10316067;28;20091;-59
2023/06/27 09:15:36;;;;;;;5.60;3.75;;;;;;;;;;10315785;28;20049;-59
2023/06/27 09:20:35;;;;;;;4.00;3.60;;;;;;;;;;10314911;28;20075;-59
2023/06/27 09:25:34;;;;;;;5.53;3.80;;;;;;;;;;10313463;28;20068;-60
2023/06/27 09:30:33;;;;;;;3.88;3.50;;;;;;;;;;10315358;28;20079;-59
2023/06/27 09:35:32;;;;;;;3.85;3.42;;;;;;;;;;10315328;28;20068;-60
2023/06/27 09:40:35;;;;;;;4.28;3.50;;;;;;;;;;10312821;28;20056;-60
2023/06/27 09:45:36;;;;;;;3.45;3.15;;;;;;;;;;10312889;28;20080;-60
2023/06/27 09:50:43;;;;;;;6.95;3.60;;;;;;;;;;10367480;27;20393;-59
2023/06/27 09:55:46;;;;;;;4.40;3.40;;;;;;;;;;10283320;28;20087;-60
2023/06/27 10:00:48;;;;;;;4.77;3.70;;;;;;;;;;10287067;28;20075;-59
2023/06/27 10:05:47;;;;;;;6.57;3.70;;;;;;;;;;10286531;28;20076;-59
2023/06/27 10:11:04;;;;;;;4.68;3.75;;;;;;;;;;10283379;28;20067;-58
2023/06/27 10:16:03;;;;;;;3.83;3.38;;;;;;;;;;10279364;28;20521;-59
2023/06/27 10:21:02;;;;;;;5.63;4.53;;;;;;;;;;10279289;28;20072;-60
2023/06/27 10:26:01;;;;;;;5.25;3.80;;;;;;;;;;10278991;28;20080;-59
2023/06/27 10:31:00;;;;;;;5.25;3.90;;;;;;;;;;10284117;28;20086;-59
2023/06/27 10:36:00;;;;;;;4.25;3.85;;;;;;;;;;10285632;28;20072;-60
2023/06/27 10:41:23;;;;;;;6.07;3.85;;;;;;;;;;10283095;28;20067;-60
2023/06/27 10:46:21;;;;;;;4.28;3.88;;;;;;;;;;10284274;28;20073;-59
2023/06/27 10:51:20;;;;;;;4.68;3.42;;;;;;;;;;10283324;28;20075;-60
2023/06/27 10:56:28;;;;;;;3.50;3.15;;;;;;;;;;10282939;28;20072;-60
2023/06/27 11:01:29;;;;;;;6.32;3.65;;;;;;;;;;10260941;28;20084;-60
2023/06/27 11:06:47;;;;;;;3.80;3.22;;;;;;;;;;10256508;28;20068;-60
2023/06/27 11:11:55;;;;;;;4.30;2.95;;;;;;;;;;10250625;28;20072;-60
2023/06/27 11:16:55;;;;;;;4.43;3.75;;;;;;;;;;10265330;28;20069;-60
2023/06/27 11:21:53;;;;;;;5.45;3.20;;;;;;;;;;10251382;28;20068;-59
2023/06/27 11:26:51;;;;;;;4.07;3.25;;;;;;;;;;10258285;28;20152;-59
2023/06/27 11:31:50;;;;;;;4.18;3.60;;;;;;;;;;10253360;28;20072;-60
2023/06/27 11:36:50;;;;;;;4.07;3.45;;;;;;;;;;10250499;28;20067;-60
2023/06/27 11:41:49;;;;;;;5.10;4.05;;;;;;;;;;10251701;28;20068;-60
2023/06/27 11:46:47;;;;;;;5.18;2.92;;;;;;;;;;10256669;28;20095;-59
2023/06/27 11:51:45;;;;;;;3.60;3.10;;;;;;;;;;10254311;28;20545;-60
2023/06/27 11:56:45;;;;;;;4.97;3.20;;;;;;;;;;10255119;28;20080;-60
2023/06/27 12:01:44;;;;;;;4.45;3.38;;;;;;;;;;10257510;28;20076;-60
2023/06/27 12:06:43;;;;;;;6.20;3.85;;;;;;;;;;10252324;28;20499;-60
2023/06/27 12:11:41;;;;;;;3.10;2.80;;;;;;;;;;10256533;28;20077;-60
2023/06/27 12:16:41;;;;;;;3.35;3.13;;;;;;;;;;10250168;28;20475;-60
2023/06/27 12:21:39;;;;;;;4.47;3.55;;;;;;;;;;10252487;28;20095;-60
2023/06/27 12:26:37;;;;;;;5.15;2.85;;;;;;;;;;10254168;28;20072;-58
2023/06/27 12:31:36;;;;;;;4.15;3.60;;;;;;;;;;10250450;28;20069;-60
2023/06/27 12:36:36;;;;;;;5.15;3.42;;;;;;;;;;10251144;28;20071;-60
2023/06/27 12:41:35;;;;;;;5.28;3.22;;;;;;;;;;10250066;28;20458;-59
2023/06/27 12:46:35;;;;;;;4.25;3.20;;;;;;;;;;10234735;28;20077;-59
2023/06/27 12:51:33;;;;;;;4.15;2.80;;;;;;;;;;10232832;28;20084;-60
2023/06/27 12:56:33;;;;;;;4.47;3.15;;;;;;;;;;10237835;28;20064;-60
2023/06/27 13:01:44;;;;;;;3.53;3.22;;;;;;;;;;10234172;28;20156;-60
2023/06/27 13:06:42;;;;;;;6.20;3.08;;;;;;;;;;10232408;28;20523;-60
2023/06/27 13:11:42;;;;;;;7.53;3.67;;;;;;;;;;10232634;28;20074;-60
2023/06/27 13:16:40;;;;;;;7.63;3.60;;;;;;;;;;10255932;28;20061;-59
2023/06/27 13:21:39;;;;;;;5.18;4.68;;;;;;;;;;10249494;28;20076;-59
2023/06/27 13:26:37;;;;;;;7.10;5.25;;;;;;;;;;10250164;28;20490;-60
2023/06/27 13:31:37;;;;;;;8.25;3.70;;;;;;;;;;10255538;28;20107;-59
2023/06/27 13:36:35;;;;;;;7.57;5.95;;;;;;;;;;10249165;28;20072;-60
2023/06/27 13:41:33;;;;;;;5.90;3.00;;;;;;;;;;10255356;28;20101;-60
2023/06/27 13:46:31;;;;;;;8.27;3.40;;;;;;;;;;10251299;28;20065;-58
2023/06/27 13:51:31;;;;;;;6.32;4.50;;;;;;;;;;10251824;28;20072;-60
2023/06/27 13:56:29;;;;;;;3.33;3.03;;;;;;;;;;10247090;28;20073;-59
2023/06/27 14:01:28;;;;;;;8.02;3.20;;;;;;;;;;10247549;28;20061;-60
2023/06/27 14:06:26;;;;;;;4.63;3.33;;;;;;;;;;10244430;28;20080;-59
2023/06/27 14:11:26;;;;;;;4.47;3.10;;;;;;;;;;10249349;28;20124;-58
2023/06/27 14:16:25;;;;;;;4.03;3.15;;;;;;;;;;10256426;28;20073;-61
2023/06/27 14:21:24;;;;;;;3.30;3.00;;;;;;;;;;10256523;28;20073;-61
2023/06/27 14:26:22;;;;;;;5.75;3.40;;;;;;;;;;10251859;28;20087;-62
2023/06/27 14:31:21;;;;;;;9.15;3.70;;;;;;;;;;10254514;28;20521;-60
2023/06/27 14:36:20;;;;;;;3.55;3.08;;;;;;;;;;10264266;28;20544;-60
2023/06/27 14:41:27;;;;;;;3.42;3.08;;;;;;;;;;10260281;28;20068;-60
2023/06/27 14:46:26;;;;;;;6.13;3.45;;;;;;;;;;10251576;28;20475;-60
2023/06/27 14:51:25;;;;;;;3.22;3.00;;;;;;;;;;10252669;28;20080;-60
2023/06/27 14:56:23;;;;;;;4.20;3.03;;;;;;;;;;10252433;28;20073;-59
2023/06/27 15:01:24;;;;;;;10.52;3.58;;;;;;;;;;10253488;28;20060;-58
2023/06/27 15:06:24;;;;;;;3.72;3.42;;;;;;;;;;10254518;28;20080;-59
2023/06/27 15:11:22;;;;;;;5.85;3.47;;;;;;;;;;10254202;28;20096;-59
2023/06/27 15:16:21;;;;;;;6.95;3.50;;;;;;;;;;10254798;28;20577;-59
2023/06/27 15:21:19;;;;;;;4.75;3.33;;;;;;;;;;10252974;28;20080;-58
2023/06/27 15:26:18;;;;;;;3.35;2.97;;;;;;;;;;10264049;28;20073;-59
2023/06/27 15:31:16;;;;;;;7.32;3.13;;;;;;;;;;10257111;28;20077;-59
2023/06/27 15:36:15;;;;;;;4.70;3.60;;;;;;;;;;10253976;28;20072;-59
2023/06/27 15:41:13;;;;;;;4.80;3.50;;;;;;;;;;10257279;28;20061;-60
2023/06/27 15:46:13;;;;;;;4.25;2.90;;;;;;;;;;10260984;28;20151;-60
2023/06/27 15:51:11;;;;;;;3.90;2.83;;;;;;;;;;10259114;28;20072;-59
2023/06/27 15:56:10;;;;;;;4.20;3.78;;;;;;;;;;10254243;28;20084;-61
2023/06/27 16:01:09;;;;;;;9.73;4.07;;;;;;;;;;10257623;28;20084;-60
2023/06/27 16:06:09;;;;;;;6.80;3.30;;;;;;;;;;10258217;28;20095;-59
2023/06/27 16:11:07;;;;;;;3.90;3.45;;;;;;;;;;10268356;28;20501;-59
2023/06/27 16:16:06;;;;;;;4.80;3.65;;;;;;;;;;10255440;28;20072;-63
2023/06/27 16:21:04;;;;;;;7.25;3.85;;;;;;;;;;10258476;28;20588;-58
2023/06/27 16:26:03;;;;;;;4.28;3.65;;;;;;;;;;10254865;28;20076;-62
2023/06/27 16:31:02;;;;;;;4.80;4.22;;;;;;;;;;10239471;28;20525;-61
2023/06/27 16:36:00;;;;;;;5.88;4.18;;;;;;;;;;10244902;28;20075;-61
2023/06/27 16:40:58;;;;;;;6.75;4.47;;;;;;;;;;10251144;28;20497;-60
2023/06/27 16:45:58;;;;;;;4.22;3.83;;;;;;;;;;10251468;28;20601;-61
2023/06/27 16:50:56;;;;;;;4.55;4.00;;;;;;;;;;10250189;28;20088;-61
2023/06/27 16:55:54;;;;;;;6.57;3.92;;;;;;;;;;10248619;28;20064;-61
2023/06/27 17:00:52;;;;;;;4.28;3.75;;;;;;;;;;10250274;28;20065;-61
2023/06/27 17:05:52;;;;;;;3.72;3.42;;;;;;;;;;10248594;28;20102;-61
2023/06/27 17:10:50;;;;;;;4.32;3.50;;;;;;;;;;10249108;28;20072;-61
2023/06/27 17:15:49;;;;;;;4.15;3.85;;;;;;;;;;10249621;28;20076;-62
2023/06/27 17:20:48;;;;;;;6.82;3.30;;;;;;;;;;10248570;28;20073;-61
2023/06/27 17:25:47;;;;;;;4.85;3.65;;;;;;;;;;10248429;28;20474;-61
2023/06/27 17:30:46;;;;;;;4.18;3.83;;;;;;;;;;10248775;28;20068;-60
2023/06/27 17:35:47;;;;;;;5.35;4.00;;;;;;;;;;10250220;28;20072;-60
2023/06/27 17:40:49;;;;;;;4.13;3.75;;;;;;;;;;10244518;28;20072;-61
2023/06/27 17:45:49;;;;;;;5.32;4.82;;;;;;;;;;10243867;28;20069;-61
2023/06/27 17:50:47;;;;;;;4.78;4.03;;;;;;;;;;10243570;28;20073;-62
2023/06/27 17:55:48;;;;;;;9.60;4.03;;;;;;;;;;10244176;28;20065;-61
2023/06/27 18:00:48;;;;;;;6.25;4.20;;;;;;;;;;10247833;28;20076;-60
2023/06/27 18:05:46;;;;;;;6.88;4.15;;;;;;;;;;10244620;28;20076;-61
2023/06/27 18:10:44;;;;;;;11.93;5.57;;;;;;;;;;10253296;28;20077;-61
2023/06/27 18:15:43;;;;;;;7.68;4.63;;;;;;;;;;10256196;28;20557;-60
2023/06/27 18:20:44;;;;;;;5.25;3.88;;;;;;;;;;10255682;28;20087;-60
2023/06/27 18:25:42;;;;;;;9.18;4.88;;;;;;;;;;10256322;28;20478;-62
2023/06/27 18:30:40;;;;;;;6.00;5.18;;;;;;;;;;10256063;28;20076;-60
2023/06/27 18:35:39;;;;;;;5.22;4.72;;;;;;;;;;10256082;28;20076;-61
2023/06/27 18:40:38;;;;;;;8.15;3.90;;;;;;;;;;10254604;28;20093;-61
2023/06/27 18:45:38;;;;;;;9.75;5.40;;;;;;;;;;10258859;28;20087;-61
2023/06/27 18:50:36;;;;;;;8.30;5.57;;;;;;;;;;10264313;28;20080;-61
2023/06/27 18:55:34;;;;;;;5.22;4.47;;;;;;;;;;10260928;28;20073;-61
2023/06/27 19:00:35;;;;;;;6.53;5.53;;;;;;;;;;10255879;28;20069;-60
2023/06/27 19:05:38;;;;;;;5.95;5.18;;;;;;;;;;10253098;28;20132;-60
2023/06/27 19:10:37;;;;;;;6.30;5.57;;;;;;;;;;10255663;28;20083;-60
2023/06/27 19:15:39;;;;;;;5.72;4.63;;;;;;;;;;10253463;28;20076;-59
2023/06/27 19:20:38;;;;;;;4.93;4.43;;;;;;;;;;10259943;28;20080;-58
2023/06/27 19:25:37;;;;;;;4.60;4.20;;;;;;;;;;10253130;28;20081;-60
2023/06/27 19:30:37;;;;;;;4.85;4.45;;;;;;;;;;10251236;28;20850;-59
2023/06/27 19:35:37;;;;;;;6.05;3.85;;;;;;;;;;10255495;28;20073;-59
2023/06/27 19:40:36;;;;;;;5.80;4.82;;;;;;;;;;10250733;28;20061;-61
2023/06/27 19:45:36;;;;;;;6.95;4.80;;;;;;;;;;10254030;28;20484;-57
2023/06/27 19:50:38;;;;;;;5.38;3.53;;;;;;;;;;10250436;28;20081;-59
2023/06/27 19:55:36;;;;;;;4.50;4.10;;;;;;;;;;10254489;28;20564;-59
2023/06/27 20:00:35;;;;;;;5.60;4.38;;;;;;;;;;10256001;28;20080;-60
2023/06/27 20:05:38;;;;;;;7.70;4.95;;;;;;;;;;10249089;28;20468;-60
2023/06/27 20:10:38;;;;;;;4.93;4.53;;;;;;;;;;10251877;28;20077;-60
2023/06/27 20:15:38;;;;;;;6.57;4.00;;;;;;;;;;10253659;28;20076;-61
2023/06/27 20:20:36;;;;;;;8.30;6.22;;;;;;;;;;10254810;28;20655;-61
2023/06/27 20:25:34;;;;;;;5.18;4.63;;;;;;;;;;10251627;28;20084;-59
2023/06/27 20:30:34;;;;;;;5.03;4.63;;;;;;;;;;10254067;28;20095;-61
2023/06/27 20:35:33;;;;;;;5.05;4.00;;;;;;;;;;10251740;28;20077;-60
2023/06/27 20:40:31;;;;;;;5.20;4.70;;;;;;;;;;10251245;28;20092;-60
2023/06/27 20:45:29;;;;;;;5.50;4.40;;;;;;;;;;10256232;28;20076;-60
2023/06/27 20:50:29;;;;;;;7.72;5.45;;;;;;;;;;10251653;28;20085;-61
2023/06/27 20:55:28;;;;;;;6.05;4.32;;;;;;;;;;10251366;28;20705;-60
2023/06/27 21:00:28;;;;;;;6.40;4.53;;;;;;;;;;10256273;28;20502;-61
2023/06/27 21:05:26;;;;;;;4.78;4.28;;;;;;;;;;10249309;28;20078;-62
2023/06/27 21:10:26;;;;;;;9.25;4.88;;;;;;;;;;10248968;28;20072;-62
2023/06/27 21:15:24;;;;;;;7.43;3.72;;;;;;;;;;10251592;28;20076;-62
2023/06/27 21:20:22;;;;;;;4.90;4.38;;;;;;;;;;10253111;28;20456;-62
2023/06/27 21:25:21;;;;;;;4.32;4.00;;;;;;;;;;10249644;28;20081;-61
2023/06/27 21:30:20;;;;;;;4.68;4.20;;;;;;;;;;10248468;28;20103;-61
2023/06/27 21:35:18;;;;;;;4.65;4.25;;;;;;;;;;10248732;28;20075;-62
2023/06/27 21:40:17;;;;;;;12.65;4.40;;;;;;;;;;10251414;28;20065;-62
2023/06/27 21:45:15;;;;;;;7.90;4.57;;;;;;;;;;10248910;28;20075;-62
2023/06/27 21:50:21;;;;;;;4.70;4.30;;;;;;;;;;10248680;28;20089;-60
2023/06/27 21:55:19;;;;;;;6.88;4.93;;;;;;;;;;10249315;28;20061;-60
2023/06/27 22:00:18;;;;;;;6.32;4.30;;;;;;;;;;10246770;28;20710;-62
2023/06/27 22:05:17;;;;;;;7.55;4.65;;;;;;;;;;10245137;28;20067;-62
2023/06/27 22:10:17;;;;;;;4.75;4.35;;;;;;;;;;10249897;28;20068;-62
2023/06/27 22:15:15;;;;;;;8.38;5.32;;;;;;;;;;10245900;28;20077;-62
2023/06/27 22:20:14;;;;;;;6.30;4.55;;;;;;;;;;10248516;28;20073;-62
2023/06/27 22:25:12;;;;;;;4.90;4.40;;;;;;;;;;10248491;28;20064;-62
2023/06/27 22:30:12;;;;;;;4.72;4.32;;;;;;;;;;10249624;28;20084;-61
2023/06/27 22:35:10;;;;;;;5.38;4.90;;;;;;;;;;10248197;28;20068;-61
2023/06/27 22:40:09;;;;;;;7.53;4.63;;;;;;;;;;10248461;28;20080;-61
2023/06/27 22:45:08;;;;;;;6.97;4.45;;;;;;;;;;10248759;28;20088;-61
2023/06/27 22:50:08;;;;;;;6.50;4.95;;;;;;;;;;10248076;28;20475;-61
2023/06/27 22:55:06;;;;;;;6.85;5.03;;;;;;;;;;10249121;28;20072;-61
2023/06/27 23:00:07;;;;;;;5.65;5.13;;;;;;;;;;10256274;28;20077;-61
2023/06/27 23:05:06;;;;;;;5.57;5.07;;;;;;;;;;10252233;28;20077;-61
2023/06/27 23:10:06;;;;;;;6.68;5.20;;;;;;;;;;10248951;28;20064;-61
2023/06/27 23:15:04;;;;;;;6.75;5.18;;;;;;;;;;10249096;28;20446;-61
2023/06/27 23:20:07;;;;;;;6.03;4.93;;;;;;;;;;10250307;28;20493;-61
2023/06/27 23:25:07;;;;;;;7.70;5.45;;;;;;;;;;10253904;28;20576;-61
2023/06/27 23:30:08;;;;;;;7.43;4.97;;;;;;;;;;10252119;28;20081;-62
2023/06/27 23:35:07;;;;;;;6.95;5.30;;;;;;;;;;10251043;28;20068;-61
2023/06/27 23:40:09;;;;;;;6.47;4.97;;;;;;;;;;10254242;28;20528;-62
2023/06/27 23:45:08;;;;;;;5.32;4.93;;;;;;;;;;10253378;28;20540;-61
2023/06/27 23:50:07;;;;;;;8.27;5.38;;;;;;;;;;10253478;28;20541;-61
2023/06/27 23:55:07;;;;;;;10.02;5.50;;;;;;;;;;10253543;28;20080;-61
